createdAt,value
2018-09-29T00:02:11.418Z,14.10
2018-09-29T00:05:14.923Z,14.04
2018-09-29T00:08:18.339Z,14.02
2018-09-29T00:11:22.884Z,13.98
2018-09-29T00:14:26.396Z,13.94
2018-09-29T00:17:29.865Z,13.85
2018-09-29T00:20:33.383Z,13.84
2018-09-29T00:23:36.869Z,13.82
2018-09-29T00:26:40.396Z,13.72
2018-09-29T00:29:43.990Z,13.64
2018-09-29T00:32:47.711Z,13.46
2018-09-29T00:35:51.205Z,13.27
2018-09-29T00:38:54.732Z,13.27
2018-09-29T00:41:58.217Z,13.17
2018-09-29T00:45:01.701Z,13.22
2018-09-29T00:48:05.184Z,13.15
2018-09-29T00:51:08.682Z,12.96
2018-09-29T00:54:12.127Z,12.78
2018-09-29T00:57:15.619Z,12.71
2018-09-29T01:00:19.110Z,12.52
2018-09-29T01:03:22.613Z,12.63
2018-09-29T01:06:26.119Z,12.67
2018-09-29T01:09:29.648Z,12.42
2018-09-29T01:12:33.134Z,12.15
2018-09-29T01:15:36.690Z,12.12
2018-09-29T01:18:40.135Z,11.95
2018-09-29T01:21:43.646Z,11.96
2018-09-29T01:24:47.247Z,11.94
2018-09-29T01:27:50.728Z,11.87
2018-09-29T01:30:54.140Z,11.78
2018-09-29T01:33:57.648Z,11.69
2018-09-29T01:37:01.146Z,11.77
2018-09-29T01:40:04.692Z,11.93
2018-09-29T01:43:08.146Z,12.04
2018-09-29T01:46:11.593Z,11.95
2018-09-29T01:49:15.036Z,11.71
2018-09-29T01:52:18.452Z,11.60
2018-09-29T01:55:22.059Z,11.47
2018-09-29T01:58:25.558Z,11.37
2018-09-29T02:01:29.089Z,11.40
2018-09-29T02:04:32.575Z,11.47
2018-09-29T02:07:36.060Z,11.50
2018-09-29T02:10:39.495Z,11.40
2018-09-29T02:13:42.976Z,11.29
2018-09-29T02:16:46.471Z,11.08
2018-09-29T02:19:49.897Z,10.99
2018-09-29T02:22:53.461Z,11.04
2018-09-29T02:25:56.882Z,10.94
2018-09-29T02:29:00.371Z,10.97
2018-09-29T02:32:03.799Z,11.06
2018-09-29T02:35:07.365Z,11.11
2018-09-29T02:38:10.796Z,11.14
2018-09-29T02:41:14.289Z,11.21
2018-09-29T02:44:17.668Z,11.23
2018-09-29T02:47:21.202Z,11.14
2018-09-29T02:50:24.586Z,11.09
2018-09-29T02:53:27.999Z,11.02
2018-09-29T02:56:31.521Z,11.06
2018-09-29T02:59:34.989Z,10.98
2018-09-29T03:02:38.402Z,10.89
2018-09-29T03:05:41.896Z,10.89
2018-09-29T03:08:45.284Z,10.86
2018-09-29T03:11:48.695Z,10.84
2018-09-29T03:14:52.092Z,10.93
2018-09-29T03:17:55.581Z,10.96
2018-09-29T03:20:58.987Z,10.94
2018-09-29T03:24:02.460Z,11.04
2018-09-29T03:27:06.193Z,11.00
2018-09-29T03:30:09.602Z,11.03
2018-09-29T03:33:13.034Z,11.08
2018-09-29T03:36:16.512Z,11.03
2018-09-29T03:39:19.900Z,10.98
2018-09-29T03:42:23.308Z,10.96
2018-09-29T03:45:26.716Z,11.06
2018-09-29T03:48:30.105Z,11.02
2018-09-29T03:51:33.532Z,10.95
2018-09-29T03:54:36.894Z,10.94
2018-09-29T03:57:40.321Z,10.98
2018-09-29T04:00:43.805Z,10.90
2018-09-29T04:03:47.204Z,10.87
2018-09-29T04:06:50.979Z,10.85
2018-09-29T04:09:54.418Z,10.83
2018-09-29T04:12:57.933Z,10.71
2018-09-29T04:16:01.561Z,10.64
2018-09-29T04:19:05.093Z,10.64
2018-09-29T04:22:08.533Z,10.61
2018-09-29T04:25:11.983Z,10.58
2018-09-29T04:28:15.439Z,10.48
2018-09-29T04:31:18.932Z,10.41
2018-09-29T04:34:22.360Z,10.32
2018-09-29T04:37:25.782Z,10.43
2018-09-29T04:40:29.235Z,10.42
2018-09-29T04:43:32.641Z,10.52
2018-09-29T04:46:36.013Z,10.51
2018-09-29T04:49:39.434Z,10.54
2018-09-29T04:52:42.849Z,10.51
2018-09-29T04:55:46.221Z,10.60
2018-09-29T04:58:49.667Z,10.62
2018-09-29T05:01:53.042Z,10.45
2018-09-29T05:04:56.445Z,10.49
2018-09-29T05:07:59.848Z,10.51
2018-09-29T05:11:03.273Z,10.60
2018-09-29T05:14:07.200Z,10.67
2018-09-29T05:17:10.566Z,10.64
2018-09-29T05:20:14.040Z,10.64
2018-09-29T05:23:17.495Z,10.65
2018-09-29T05:26:20.869Z,10.66
2018-09-29T05:29:24.415Z,10.61
2018-09-29T05:32:27.882Z,10.54
2018-09-29T05:35:31.447Z,10.35
2018-09-29T05:38:35.144Z,10.29
2018-09-29T05:41:38.482Z,10.31
2018-09-29T05:44:41.965Z,10.19
2018-09-29T05:47:45.473Z,10.10
2018-09-29T05:50:48.994Z,10.17
2018-09-29T05:53:52.512Z,10.19
2018-09-29T05:56:55.975Z,10.33
2018-09-29T05:59:59.489Z,10.32
2018-09-29T06:03:03.043Z,10.27
2018-09-29T06:06:07.021Z,10.30
2018-09-29T06:09:10.766Z,10.36
2018-09-29T06:12:14.306Z,10.40
2018-09-29T06:15:18.412Z,10.35
2018-09-29T06:18:21.926Z,10.41
2018-09-29T06:21:25.424Z,10.41
2018-09-29T06:24:28.945Z,10.34
2018-09-29T06:27:32.437Z,10.23
2018-09-29T06:30:35.997Z,10.43
2018-09-29T06:33:41.097Z,10.64
2018-09-29T06:36:44.647Z,10.66
2018-09-29T06:39:48.065Z,10.66
2018-09-29T06:42:51.585Z,10.81
2018-09-29T06:45:55.106Z,10.68
2018-09-29T06:48:58.592Z,10.75
2018-09-29T06:52:02.163Z,10.88
2018-09-29T06:55:05.623Z,10.83
2018-09-29T06:58:12.430Z,10.99
2018-09-29T07:01:15.930Z,11.01
2018-09-29T07:04:19.657Z,11.04
2018-09-29T07:07:23.193Z,11.21
2018-09-29T07:10:26.714Z,11.27
2018-09-29T07:13:30.202Z,11.39
2018-09-29T07:16:33.753Z,11.42
2018-09-29T07:19:37.212Z,11.50
2018-09-29T07:22:40.695Z,11.59
2018-09-29T07:25:44.205Z,11.62
2018-09-29T07:28:47.719Z,11.75
2018-09-29T07:31:51.189Z,11.90
2018-09-29T07:34:55.008Z,12.02
2018-09-29T07:37:58.517Z,12.03
2018-09-29T07:41:02.089Z,12.11
2018-09-29T07:44:05.487Z,12.18
2018-09-29T07:47:08.917Z,12.25
2018-09-29T07:50:12.406Z,12.49
2018-09-29T07:53:15.917Z,12.60
2018-09-29T07:56:19.440Z,12.74
2018-09-29T07:59:22.924Z,12.83
2018-09-29T08:02:26.490Z,12.89
2018-09-29T08:05:30.029Z,13.04
2018-09-29T08:08:33.525Z,13.11
2018-09-29T08:11:37.065Z,13.14
2018-09-29T08:14:40.533Z,13.12
2018-09-29T08:17:43.934Z,13.01
2018-09-29T08:20:47.429Z,13.02
2018-09-29T08:23:50.848Z,13.30
2018-09-29T08:26:54.350Z,13.48
2018-09-29T08:29:57.843Z,13.48
2018-09-29T08:33:01.321Z,13.68
2018-09-29T08:36:04.753Z,13.85
2018-09-29T08:39:09.217Z,13.82
2018-09-29T08:42:12.684Z,13.74
2018-09-29T08:45:16.199Z,13.61
2018-09-29T08:48:19.769Z,13.73
2018-09-29T08:51:23.187Z,13.71
2018-09-29T08:54:26.728Z,13.93
2018-09-29T08:57:30.181Z,14.04
2018-09-29T09:00:33.576Z,14.17
2018-09-29T09:03:36.995Z,14.40
2018-09-29T09:06:40.479Z,14.50
2018-09-29T09:09:44.314Z,14.73
2018-09-29T09:12:48.741Z,14.84
2018-09-29T09:15:52.222Z,14.73
2018-09-29T09:18:55.727Z,14.77
2018-09-29T09:21:59.251Z,14.69
2018-09-29T09:25:02.751Z,14.60
2018-09-29T09:28:06.297Z,14.54
2018-09-29T09:31:09.698Z,14.47
2018-09-29T09:34:13.145Z,14.53
2018-09-29T09:37:16.540Z,14.84
2018-09-29T09:40:20.026Z,14.83
2018-09-29T09:43:23.460Z,14.95
2018-09-29T09:46:27.038Z,14.96
2018-09-29T09:49:30.703Z,14.95
2018-09-29T09:52:34.054Z,15.01
2018-09-29T09:55:37.513Z,15.22
2018-09-29T09:58:41.407Z,15.41
2018-09-29T10:02:53.235Z,15.37
2018-09-29T10:05:56.789Z,15.18
2018-09-29T10:09:00.577Z,14.98
2018-09-29T10:12:04.059Z,15.24
2018-09-29T10:15:07.561Z,15.45
2018-09-29T10:18:11.090Z,15.60
2018-09-29T10:21:14.510Z,15.78
2018-09-29T10:24:17.975Z,15.91
2018-09-29T10:27:21.389Z,16.05
2018-09-29T10:30:24.780Z,16.09
2018-09-29T10:33:28.222Z,15.86
2018-09-29T10:36:31.722Z,16.01
2018-09-29T10:39:35.307Z,16.30
2018-09-29T10:42:38.699Z,16.37
2018-09-29T10:45:42.089Z,16.58
2018-09-29T10:48:45.485Z,16.63
2018-09-29T10:51:48.884Z,16.57
2018-09-29T10:54:52.304Z,16.69
2018-09-29T10:57:55.796Z,16.80
2018-09-29T11:00:59.191Z,17.04
2018-09-29T11:04:02.688Z,17.20
2018-09-29T11:07:06.089Z,17.19
2018-09-29T11:10:09.502Z,17.22
2018-09-29T11:13:12.893Z,17.17
2018-09-29T11:16:16.294Z,17.28
2018-09-29T11:19:19.690Z,16.98
2018-09-29T11:22:23.237Z,16.86
2018-09-29T11:25:26.825Z,16.98
2018-09-29T11:28:30.196Z,17.09
2018-09-29T11:31:33.634Z,17.20
2018-09-29T11:34:37.004Z,17.28
2018-09-29T11:37:40.704Z,17.62
2018-09-29T11:40:44.107Z,17.84
2018-09-29T11:43:48.048Z,17.60
2018-09-29T11:46:51.429Z,17.70
2018-09-29T11:49:55.777Z,17.92
2018-09-29T11:52:59.322Z,17.84
2018-09-29T11:56:02.793Z,17.86
2018-09-29T11:59:06.251Z,17.75
2018-09-29T12:02:23.075Z,17.48
2018-09-29T12:05:26.497Z,17.41
2018-09-29T12:08:29.882Z,17.47
2018-09-29T12:11:33.253Z,17.66
2018-09-29T12:14:37.982Z,17.73
2018-09-29T12:17:41.898Z,17.93
2018-09-29T12:20:45.596Z,17.80
2018-09-29T12:23:49.121Z,17.76
2018-09-29T12:26:52.616Z,17.84
2018-09-29T12:29:56.264Z,17.59
2018-09-29T12:32:59.721Z,17.81
2018-09-29T12:36:03.316Z,17.86
2018-09-29T12:39:08.223Z,17.84
2018-09-29T12:42:11.785Z,17.79
2018-09-29T12:45:15.314Z,17.88
2018-09-29T12:48:18.789Z,17.97
2018-09-29T12:51:22.327Z,17.98
2018-09-29T12:54:25.802Z,18.03
2018-09-29T12:57:29.258Z,18.09
2018-09-29T13:00:32.888Z,18.18
2018-09-29T13:03:36.405Z,18.32
2018-09-29T13:06:39.980Z,18.26
2018-09-29T13:09:43.570Z,18.35
2018-09-29T13:12:47.088Z,18.13
2018-09-29T13:15:50.615Z,18.21
2018-09-29T13:18:54.112Z,18.26
2018-09-29T13:21:57.607Z,18.34
2018-09-29T13:25:01.147Z,18.36
2018-09-29T13:28:04.781Z,18.46
2018-09-29T13:31:08.619Z,18.66
2018-09-29T13:34:12.130Z,18.62
2018-09-29T13:37:15.680Z,18.74
2018-09-29T13:40:19.204Z,18.81
2018-09-29T13:43:22.647Z,18.87
2018-09-29T13:46:26.139Z,19.04
2018-09-29T13:49:29.629Z,19.10
2018-09-29T13:52:33.152Z,18.96
2018-09-29T13:55:36.705Z,18.76
2018-09-29T13:58:40.179Z,18.73
2018-09-29T14:01:43.674Z,18.94
2018-09-29T14:04:47.148Z,19.27
2018-09-29T14:07:50.987Z,19.27
2018-09-29T14:10:54.477Z,19.44
2018-09-29T14:13:58.051Z,19.65
2018-09-29T14:17:01.520Z,19.57
2018-09-29T14:20:05.813Z,19.77
2018-09-29T14:23:09.902Z,19.92
2018-09-29T14:26:13.473Z,19.94
2018-09-29T14:29:16.911Z,20.05
2018-09-29T14:32:20.413Z,20.26
2018-09-29T14:35:23.968Z,20.19
2018-09-29T14:38:27.470Z,20.15
2018-09-29T14:41:31.337Z,19.64
2018-09-29T14:44:34.839Z,19.28
2018-09-29T14:47:38.356Z,19.38
2018-09-29T14:50:41.840Z,19.44
2018-09-29T14:53:45.343Z,19.72
2018-09-29T14:56:49.052Z,19.82
2018-09-29T14:59:52.668Z,19.64
2018-09-29T15:02:56.134Z,19.81
2018-09-29T15:05:59.564Z,19.44
2018-09-29T15:09:03.294Z,19.19
2018-09-29T15:12:06.801Z,19.20
2018-09-29T15:15:11.296Z,18.96
2018-09-29T15:18:14.791Z,18.83
2018-09-29T15:21:18.284Z,18.89
2018-09-29T15:24:21.702Z,18.91
2018-09-29T15:27:25.263Z,18.89
2018-09-29T15:30:28.736Z,18.79
2018-09-29T15:33:32.201Z,18.74
2018-09-29T15:36:35.616Z,18.76
2018-09-29T15:39:39.133Z,18.67
2018-09-29T15:42:42.731Z,18.46
2018-09-29T15:45:46.118Z,18.49
2018-09-29T15:48:49.557Z,18.39
2018-09-29T15:51:53.028Z,18.47
2018-09-29T15:54:56.519Z,18.47
2018-09-29T15:57:59.897Z,18.53
2018-09-29T16:01:03.335Z,18.44
2018-09-29T16:04:06.997Z,18.44
2018-09-29T16:07:10.406Z,18.48
2018-09-29T16:10:13.846Z,18.48
2018-09-29T16:13:17.369Z,18.34
2018-09-29T16:16:20.899Z,18.30
2018-09-29T16:19:24.378Z,18.30
2018-09-29T16:22:27.828Z,18.28
2018-09-29T16:25:31.227Z,18.19
2018-09-29T16:28:37.823Z,17.96
2018-09-29T16:31:41.331Z,17.79
2018-09-29T16:34:44.879Z,17.70
2018-09-29T16:37:48.355Z,17.62
2018-09-29T16:40:51.861Z,17.61
2018-09-29T16:43:55.348Z,17.59
2018-09-29T16:46:59.163Z,17.53
2018-09-29T16:50:03.217Z,17.43
2018-09-29T16:53:06.820Z,17.40
2018-09-29T16:56:10.286Z,17.38
2018-09-29T16:59:15.726Z,17.26
2018-09-29T17:02:19.187Z,17.19
2018-09-29T17:05:22.724Z,17.02
2018-09-29T17:08:26.204Z,16.94
2018-09-29T17:11:30.783Z,16.82
2018-09-29T17:14:34.843Z,16.85
2018-09-29T17:17:38.402Z,16.73
2018-09-29T17:20:41.929Z,16.65
2018-09-29T17:23:45.478Z,16.63
2018-09-29T17:26:49.023Z,16.57
2018-09-29T17:29:52.720Z,16.53
2018-09-29T17:32:56.265Z,16.50
2018-09-29T17:35:59.741Z,16.40
2018-09-29T17:39:03.325Z,16.33
2018-09-29T17:42:07.126Z,16.20
2018-09-29T17:45:10.573Z,16.09
2018-09-29T17:48:14.120Z,16.16
2018-09-29T17:51:17.567Z,16.14
2018-09-29T17:54:21.277Z,16.09
2018-09-29T17:57:24.768Z,16.02
2018-09-29T18:00:28.274Z,15.99
2018-09-29T18:03:31.984Z,15.87
2018-09-29T18:06:35.503Z,15.81
2018-09-29T18:09:38.983Z,15.69
2018-09-29T18:12:42.499Z,15.63
2018-09-29T18:15:46.023Z,15.57
2018-09-29T18:18:49.512Z,15.53
2018-09-29T18:21:53.125Z,15.52
2018-09-29T18:24:56.639Z,15.40
2018-09-29T18:28:00.314Z,15.26
2018-09-29T18:31:04.171Z,15.39
2018-09-29T18:34:07.802Z,15.45
2018-09-29T18:37:11.436Z,15.50
2018-09-29T18:40:14.977Z,15.47
2018-09-29T18:43:18.460Z,15.51
2018-09-29T18:46:21.972Z,15.47
2018-09-29T18:49:25.538Z,15.43
2018-09-29T18:52:29.034Z,15.40
2018-09-29T18:55:32.539Z,15.38
2018-09-29T18:58:36.074Z,15.32
2018-09-29T19:01:39.551Z,15.29
2018-09-29T19:04:43.059Z,15.26
2018-09-29T19:07:46.582Z,15.15
2018-09-29T19:10:50.042Z,14.95
2018-09-29T19:13:53.499Z,14.85
2018-09-29T19:16:56.955Z,14.77
2018-09-29T19:20:00.681Z,14.76
2018-09-29T19:23:04.224Z,14.70
2018-09-29T19:26:08.072Z,14.65
2018-09-29T19:29:11.907Z,14.59
2018-09-29T19:32:15.505Z,14.47
2018-09-29T19:35:18.998Z,14.40
2018-09-29T19:38:22.378Z,14.33
2018-09-29T19:41:25.790Z,14.27
2018-09-29T19:44:29.458Z,14.23
2018-09-29T19:47:33.134Z,14.18
2018-09-29T19:50:36.604Z,14.07
2018-09-29T19:53:39.990Z,13.92
2018-09-29T19:56:43.501Z,13.80
2018-09-29T19:59:46.905Z,13.76
2018-09-29T20:02:50.318Z,13.70
2018-09-29T20:05:53.721Z,13.67
2018-09-29T20:08:57.219Z,13.67
2018-09-29T20:12:00.608Z,13.61
2018-09-29T20:15:04.066Z,13.56
2018-09-29T20:18:07.835Z,13.53
2018-09-29T20:21:11.333Z,13.49
2018-09-29T20:24:14.872Z,13.39
2018-09-29T20:27:18.234Z,13.26
2018-09-29T20:30:21.803Z,13.11
2018-09-29T20:33:25.251Z,12.94
2018-09-29T20:36:28.719Z,12.81
2018-09-29T20:39:32.246Z,12.69
2018-09-29T20:42:35.696Z,12.51
2018-09-29T20:45:39.371Z,12.33
2018-09-29T20:48:42.847Z,12.28
2018-09-29T20:51:46.357Z,12.27
2018-09-29T20:54:49.749Z,12.26
2018-09-29T20:57:53.157Z,12.18
2018-09-29T21:00:56.554Z,12.14
2018-09-29T21:03:59.942Z,12.09
2018-09-29T21:07:03.477Z,12.17
2018-09-29T21:10:06.991Z,12.18
2018-09-29T21:13:10.631Z,12.26
2018-09-29T21:16:13.990Z,12.33
2018-09-29T21:19:17.464Z,12.42
2018-09-29T21:22:21.155Z,12.48
2018-09-29T21:25:24.582Z,12.50
2018-09-29T21:28:28.016Z,12.51
2018-09-29T21:31:31.459Z,12.53
2018-09-29T21:34:34.837Z,12.56
2018-09-29T21:37:38.287Z,12.52
2018-09-29T21:40:41.660Z,12.44
2018-09-29T21:43:45.133Z,12.41
2018-09-29T21:46:48.580Z,12.42
2018-09-29T21:49:51.964Z,12.48
2018-09-29T21:52:55.383Z,12.45
2018-09-29T21:55:58.763Z,12.41
2018-09-29T21:59:02.155Z,12.41
2018-09-29T22:02:05.582Z,12.40
2018-09-29T22:05:08.971Z,12.37
2018-09-29T22:08:12.607Z,12.37
2018-09-29T22:11:15.986Z,12.35
2018-09-29T22:14:19.378Z,12.27
2018-09-29T22:17:22.792Z,12.24
2018-09-29T22:20:26.182Z,12.27
2018-09-29T22:23:29.807Z,12.24
2018-09-29T22:26:33.327Z,12.26
2018-09-29T22:29:36.790Z,12.27
2018-09-29T22:32:40.332Z,12.28
2018-09-29T22:35:44.108Z,12.25
2018-09-29T22:38:47.546Z,12.24
2018-09-29T22:41:51.106Z,12.21
2018-09-29T22:44:54.609Z,12.16
2018-09-29T22:47:59.109Z,12.15
2018-09-29T22:51:02.640Z,12.16
2018-09-29T22:54:06.447Z,12.19
2018-09-29T22:57:09.925Z,12.18
2018-09-29T23:00:13.440Z,12.10
2018-09-29T23:03:16.959Z,12.02
2018-09-29T23:06:20.517Z,12.00
2018-09-29T23:09:24.037Z,12.04
2018-09-29T23:12:27.606Z,12.06
2018-09-29T23:15:31.071Z,12.01
2018-09-29T23:18:34.579Z,12.02
2018-09-29T23:21:38.058Z,11.98
2018-09-29T23:24:41.663Z,11.93
2018-09-29T23:27:45.169Z,11.84
2018-09-29T23:30:50.090Z,11.91
2018-09-29T23:33:53.583Z,11.87
2018-09-29T23:36:57.134Z,11.86
2018-09-29T23:40:00.681Z,11.87
2018-09-29T23:43:04.137Z,11.85
2018-09-29T23:46:07.642Z,11.82
2018-09-29T23:49:11.114Z,11.85
2018-09-29T23:52:15.637Z,11.83
2018-09-29T23:55:19.129Z,11.83
2018-09-29T23:58:22.670Z,11.76
